Time;durP1;ratioP1;P1;durP2;ratioP2;P2;SDS_P1;SDS_P2;PMS_P1;PMS_P2;Temp;Humidity;BMP_temperature;BMP_pressure;BME280_temperature;BME280_humidity;BME280_pressure;Samples;Min_cycle;Max_cycle;Signal;HPM_P1;HPM_P2
2023/04/29 00:00:37;;;;;;;2.50;1.60;;;;;;;5.54;53.11;99878.23;105759;1260;60417;-71
2023/04/29 00:03:04;;;;;;;4.70;1.80;;;;;;;5.52;53.38;99874.38;105690;1256;72666;-72
2023/04/29 00:05:31;;;;;;;3.90;1.60;;;;;;;5.50;53.52;99877.37;105702;1258;70490;-72
2023/04/29 00:07:58;;;;;;;2.60;1.40;;;;;;;5.49;53.73;99876.98;105627;1255;73478;-73
2023/04/29 00:10:25;;;;;;;3.30;1.40;;;;;;;5.47;54.08;99880.42;105811;1255;60524;-72
2023/04/29 00:12:53;;;;;;;2.50;1.50;;;;;;;5.45;54.00;99879.52;105737;1256;60309;-71
2023/04/29 00:15:20;;;;;;;5.70;2.00;;;;;;;5.44;54.25;99879.63;105643;1256;75019;-72
2023/04/29 00:17:47;;;;;;;3.00;1.80;;;;;;;5.43;54.53;99879.94;105695;1256;69706;-70
2023/04/29 00:20:14;;;;;;;2.10;1.40;;;;;;;5.42;54.69;99878.79;105752;1255;73631;-70
2023/04/29 00:22:41;;;;;;;3.20;1.70;;;;;;;5.40;54.76;99879.42;105645;1256;60430;-71
2023/04/29 00:25:08;;;;;;;2.60;1.40;;;;;;;5.40;55.15;99875.46;105734;1258;60758;-69
2023/04/29 00:27:34;;;;;;;3.60;1.70;;;;;;;5.39;55.27;99874.31;105771;1256;71608;-70
2023/04/29 00:30:02;;;;;;;3.30;1.60;;;;;;;5.37;55.70;99870.76;105798;1258;70542;-70
2023/04/29 00:32:30;;;;;;;6.50;2.00;;;;;;;5.36;55.58;99874.00;105785;1256;73623;-70
2023/04/29 00:34:56;;;;;;;4.50;1.90;;;;;;;5.35;55.74;99868.86;105779;1255;60540;-68
2023/04/29 00:37:23;;;;;;;4.20;1.60;;;;;;;5.33;56.17;99871.09;105784;1258;60394;-70
2023/04/29 00:39:50;;;;;;;2.70;1.60;;;;;;;5.32;56.29;99869.09;105799;1258;74785;-72
2023/04/29 00:42:17;;;;;;;2.60;1.40;;;;;;;5.30;56.41;99870.17;105946;1259;69355;-71
2023/04/29 00:44:44;;;;;;;4.80;1.60;;;;;;;5.28;56.58;99872.73;105959;1257;73735;-73
2023/04/29 00:47:11;;;;;;;2.90;1.40;;;;;;;5.27;56.70;99870.21;106047;1255;60502;-71
2023/04/29 00:49:38;;;;;;;2.60;1.70;;;;;;;5.26;56.57;99871.14;105705;1255;60461;-70
2023/04/29 00:52:08;;;;;;;3.30;1.70;;;;;;;5.25;56.94;99870.17;105813;1258;74661;-70
2023/04/29 00:54:36;;;;;;;2.50;1.70;;;;;;;5.24;57.10;99870.83;105835;1256;69329;-72
2023/04/29 00:57:05;;;;;;;5.60;2.40;;;;;;;5.22;57.47;99871.53;106028;1254;71708;-72
2023/04/29 00:59:33;;;;;;;3.60;1.80;;;;;;;5.19;57.30;99872.83;106221;1254;60446;-73
2023/04/29 01:02:01;;;;;;;5.70;2.30;;;;;;;5.18;57.30;99881.20;106291;1256;60324;-74
2023/04/29 01:04:29;;;;;;;2.80;1.40;;;;;;;5.17;57.36;99884.40;105952;1258;72529;-72
2023/04/29 01:07:23;;;;;;;3.50;1.70;;;;;;;5.17;57.37;99884.96;105799;1256;71618;-69
2023/04/29 01:10:09;;;;;;;2.30;1.50;;;;;;;5.16;57.82;99882.95;105627;1256;72571;-72
2023/04/29 01:12:49;;;;;;;3.80;1.50;;;;;;;5.13;57.72;99882.59;105876;1255;60645;-69
2023/04/29 01:15:25;;;;;;;2.40;1.50;;;;;;;5.12;57.99;99889.06;105905;1254;60543;-71
2023/04/29 01:18:04;;;;;;;2.80;1.80;;;;;;;5.09;58.06;99885.41;105822;1258;73021;-70
2023/04/29 01:20:31;;;;;;;2.80;1.50;;;;;;;5.07;57.98;99885.23;105624;1256;70706;-72
2023/04/29 01:22:58;;;;;;;4.40;1.70;;;;;;;5.04;58.30;99882.85;105538;1260;73332;-72
2023/04/29 01:25:25;;;;;;;4.40;2.20;;;;;;;5.01;58.51;99883.16;105922;1254;60461;-72
2023/04/29 01:28:26;;;;;;;3.00;1.80;;;;;;;4.99;58.73;99888.94;105857;1256;60525;-71
2023/04/29 01:31:22;;;;;;;3.10;1.80;;;;;;;4.94;58.78;99892.64;105642;1256;72974;-70
2023/04/29 01:34:04;;;;;;;3.40;1.90;;;;;;;4.92;58.81;99895.81;105822;1255;71569;-70
2023/04/29 01:37:10;;;;;;;3.60;1.70;;;;;;;4.89;58.93;99900.27;105785;1254;72955;-69
2023/04/29 01:40:08;;;;;;;2.80;1.70;;;;;;;4.86;59.03;99902.27;105761;1258;60436;-69
2023/04/29 01:42:47;;;;;;;3.20;2.10;;;;;;;4.82;59.12;99903.77;105868;1259;60391;-70
2023/04/29 01:45:16;;;;;;;2.20;1.40;;;;;;;4.81;59.02;99904.65;105673;1256;72311;-69
2023/04/29 01:47:44;;;;;;;2.30;1.50;;;;;;;4.77;59.30;99907.38;105892;1256;70496;-71
2023/04/29 01:50:11;;;;;;;3.90;2.00;;;;;;;4.74;59.52;99907.46;105713;1260;72886;-70
2023/04/29 01:52:38;;;;;;;4.10;2.10;;;;;;;4.70;59.71;99910.75;105745;1256;60485;-70
2023/04/29 01:55:06;;;;;;;4.50;2.00;;;;;;;4.67;59.66;99914.50;105602;1258;60378;-70
2023/04/29 01:57:41;;;;;;;5.30;2.00;;;;;;;4.65;59.72;99918.18;105644;1256;74795;-72
2023/04/29 02:00:28;;;;;;;3.80;2.20;;;;;;;4.63;59.75;99924.48;105748;1254;71578;-71
2023/04/29 02:02:55;;;;;;;4.40;2.10;;;;;;;4.62;60.02;99923.51;105902;1256;73849;-71
2023/04/29 02:05:32;;;;;;;4.00;2.30;;;;;;;4.60;60.25;99925.65;106042;1258;60506;-70
2023/04/29 02:08:00;;;;;;;4.30;2.00;;;;;;;4.57;60.29;99926.41;105932;1256;60369;-69
2023/04/29 02:10:28;;;;;;;4.40;2.30;;;;;;;4.53;60.89;99930.21;106019;1258;74884;-70
2023/04/29 02:13:15;;;;;;;3.40;1.80;;;;;;;4.49;61.44;99928.76;106007;1256;69288;-68
2023/04/29 02:15:43;;;;;;;4.10;1.80;;;;;;;4.46;61.53;99930.31;105952;1256;72795;-69
2023/04/29 02:18:09;;;;;;;3.40;1.90;;;;;;;4.40;62.25;99930.61;105920;1255;60455;-71
2023/04/29 02:20:37;;;;;;;2.70;1.80;;;;;;;4.31;62.69;99925.83;105856;1260;60660;-71
2023/04/29 02:23:04;;;;;;;3.40;2.00;;;;;;;4.25;62.54;99922.63;105969;1256;74236;-70
2023/04/29 02:25:32;;;;;;;3.90;2.40;;;;;;;4.21;62.21;99922.27;105889;1256;70592;-69
2023/04/29 02:27:59;;;;;;;4.30;1.90;;;;;;;4.19;62.61;99924.95;105893;1254;73548;-72
2023/04/29 02:30:26;;;;;;;3.20;2.00;;;;;;;4.16;62.78;99919.69;106028;1254;60458;-70
2023/04/29 02:32:54;;;;;;;3.70;2.00;;;;;;;4.13;63.08;99922.17;105842;1257;60597;-72
2023/04/29 02:35:21;;;;;;;3.60;2.20;;;;;;;4.09;63.35;99925.50;105891;1256;72906;-71
2023/04/29 02:37:47;;;;;;;3.90;2.10;;;;;;;4.05;63.48;99924.75;105964;1254;71048;-72
2023/04/29 02:40:14;;;;;;;3.20;2.10;;;;;;;4.04;63.35;99929.59;105818;1261;73106;-72
2023/04/29 02:42:41;;;;;;;4.60;2.10;;;;;;;4.02;63.52;99935.16;105965;1256;60420;-72
2023/04/29 02:45:09;;;;;;;4.40;2.50;;;;;;;3.99;63.76;99938.21;105954;1255;60870;-72
2023/04/29 02:47:36;;;;;;;6.80;2.60;;;;;;;3.97;63.84;99940.52;106336;1258;74940;-71
2023/04/29 02:50:03;;;;;;;4.30;2.30;;;;;;;3.94;63.82;99945.61;105927;1256;70168;-71
2023/04/29 02:52:31;;;;;;;5.50;2.80;;;;;;;3.92;63.89;99946.29;105689;1256;72753;-71
2023/04/29 02:54:58;;;;;;;5.70;2.60;;;;;;;3.91;63.94;99950.05;105971;1256;59526;-71
2023/04/29 02:57:25;;;;;;;8.30;2.90;;;;;;;3.90;64.26;99950.81;105937;1255;60419;-70
2023/04/29 02:59:53;;;;;;;5.10;2.40;;;;;;;3.89;64.10;99956.16;105781;1260;73859;-70
2023/04/29 03:02:20;;;;;;;7.50;2.90;;;;;;;3.88;64.62;99957.70;105852;1258;69102;-70
2023/04/29 03:04:50;;;;;;;5.00;2.90;;;;;;;3.85;64.52;99960.66;105797;1257;71924;-71
2023/04/29 03:07:16;;;;;;;4.80;2.60;;;;;;;3.84;64.56;99960.91;106109;1259;60435;-71
2023/04/29 03:09:44;;;;;;;7.70;2.80;;;;;;;3.84;65.12;99962.55;105942;1259;61293;-71
2023/04/29 03:12:11;;;;;;;5.00;2.90;;;;;;;3.82;65.12;99965.45;106033;1258;73458;-70
2023/04/29 03:14:38;;;;;;;4.70;2.60;;;;;;;3.82;65.19;99971.45;106096;1260;71243;-69
2023/04/29 03:17:05;;;;;;;3.90;2.30;;;;;;;3.82;65.41;99973.02;106013;1254;73508;-70
2023/04/29 03:19:32;;;;;;;6.40;3.00;;;;;;;3.83;65.32;99975.09;105980;1254;60429;-71
2023/04/29 03:21:59;;;;;;;6.10;2.90;;;;;;;3.82;65.34;99977.02;106081;1254;60433;-70
2023/04/29 03:24:26;;;;;;;4.10;2.70;;;;;;;3.82;65.45;99985.61;106052;1258;73763;-70
2023/04/29 03:26:53;;;;;;;4.80;2.90;;;;;;;3.83;65.36;99990.48;105967;1254;70440;-70
2023/04/29 03:29:20;;;;;;;9.50;3.50;;;;;;;3.84;65.24;99991.23;106012;1260;72730;-70
2023/04/29 03:31:47;;;;;;;3.90;2.40;;;;;;;3.87;65.54;99992.77;106089;1256;60522;-68
2023/04/29 03:34:14;;;;;;;5.90;2.80;;;;;;;3.88;65.45;99993.08;106159;1258;60466;-68
2023/04/29 03:36:43;;;;;;;4.40;2.60;;;;;;;3.89;65.69;99999.29;106114;1254;73732;-69
2023/04/29 03:39:11;;;;;;;4.70;2.20;;;;;;;3.91;65.61;99999.52;106047;1259;70818;-68
2023/04/29 03:41:38;;;;;;;4.40;2.70;;;;;;;3.94;65.68;100001.86;105942;1254;73584;-70
2023/04/29 03:44:04;;;;;;;7.10;2.70;;;;;;;3.98;65.77;99998.23;105844;1257;252026;-70
2023/04/29 03:48:42;;;;;;;6.70;2.70;;;;;;;4.10;65.67;100002.57;102940;1297;600046;-69
2023/04/29 03:51:10;;;;;;;3.60;2.20;;;;;;;4.15;65.78;100005.29;105013;1274;61277;-67
2023/04/29 03:53:36;;;;;;;5.10;2.40;;;;;;;4.25;66.02;100004.21;105026;1260;61283;-66
2023/04/29 03:56:04;;;;;;;4.20;2.80;;;;;;;4.34;66.02;100003.30;105100;1262;70247;-68
2023/04/29 03:58:31;;;;;;;3.80;2.60;;;;;;;4.44;65.82;100007.42;105526;1263;70972;-67
2023/04/29 04:00:58;;;;;;;5.10;2.80;;;;;;;4.60;66.25;100012.64;105288;1266;73071;-70
2023/04/29 04:03:29;;;;;;;4.60;2.90;;;;;;;4.84;66.22;100012.48;105421;1258;182911;-69
2023/04/29 04:05:56;;;;;;;4.40;2.70;;;;;;;5.03;65.79;100015.48;105406;1257;62441;-67
2023/04/29 04:08:23;;;;;;;4.10;2.70;;;;;;;5.24;65.59;100013.06;105442;1261;71583;-66
2023/04/29 04:11:01;;;;;;;8.70;2.90;;;;;;;5.50;65.59;100010.92;105534;1263;72867;-67
2023/04/29 04:13:35;;;;;;;5.00;2.60;;;;;;;5.73;65.09;100014.03;105543;1262;74857;-67
2023/04/29 04:16:04;;;;;;;4.40;2.80;;;;;;;5.89;64.60;100015.51;105300;1261;61062;-67
2023/04/29 04:18:31;;;;;;;6.40;3.40;;;;;;;6.01;64.17;100016.75;105322;1271;62626;-67
2023/04/29 04:21:04;;;;;;;4.90;2.80;;;;;;;6.14;64.22;100015.02;106368;1257;74849;-68
2023/04/29 04:23:31;;;;;;;;;;;;;;;6.26;63.70;100018.66;106604;1260;68407;-68
2023/04/29 04:26:00;;;;;;;5.70;2.70;;;;;;;6.38;63.63;100021.34;109013;1251;72480;-68
2023/04/29 04:28:45;;;;;;;6.90;3.30;;;;;;;6.52;63.45;100022.96;108283;1253;60510;-68
2023/04/29 04:31:19;;;;;;;5.10;3.00;;;;;;;6.68;63.36;100023.10;109215;1253;59625;-70
2023/04/29 04:33:46;;;;;;;5.00;3.20;;;;;;;6.87;63.37;100021.25;109410;1252;74068;-69
2023/04/29 04:36:13;;;;;;;4.00;2.80;;;;;;;7.06;63.10;100019.90;109191;1252;71503;-67
2023/04/29 04:38:40;;;;;;;5.00;3.40;;;;;;;7.21;62.85;100020.45;109221;1253;72562;-69
2023/04/29 04:41:11;;;;;;;4.00;3.10;;;;;;;7.33;62.65;100023.51;109187;1253;58663;-70
2023/04/29 04:43:46;;;;;;;7.30;3.20;;;;;;;7.40;62.58;100023.11;109037;1253;61192;-68
2023/04/29 04:46:19;;;;;;;6.80;3.00;;;;;;;7.51;62.46;100018.11;108578;1253;72378;-70
2023/04/29 04:48:59;;;;;;;6.30;3.10;;;;;;;7.63;62.36;100022.60;108714;1254;72481;-70
2023/04/29 04:51:28;;;;;;;4.80;3.50;;;;;;;7.73;62.30;100018.69;108855;1253;73814;-68
2023/04/29 04:53:55;;;;;;;4.90;3.30;;;;;;;7.85;62.29;100017.77;108720;1254;60431;-68
2023/04/29 04:56:25;;;;;;;5.80;3.00;;;;;;;7.97;62.01;100012.98;109155;1254;61036;-68
2023/04/29 04:58:52;;;;;;;4.90;3.00;;;;;;;8.07;61.78;100014.07;109143;1254;71569;-70
2023/04/29 05:01:19;;;;;;;5.30;3.00;;;;;;;8.17;61.51;100012.33;108652;1254;71311;-71
2023/04/29 05:03:47;;;;;;;4.10;2.50;;;;;;;8.27;61.20;100014.89;109300;1253;72570;-72
2023/04/29 05:06:14;;;;;;;7.00;3.30;;;;;;;8.38;60.96;100014.04;109234;1253;60336;-69
2023/04/29 05:08:44;;;;;;;8.40;2.70;;;;;;;8.48;60.27;100016.06;109268;1253;60368;-71
2023/04/29 05:11:17;;;;;;;5.20;2.40;;;;;;;8.56;59.81;100016.33;109255;1254;74303;-70
2023/04/29 05:14:00;;;;;;;5.40;2.90;;;;;;;8.68;59.55;100013.27;109266;1253;70704;-71
2023/04/29 05:16:27;;;;;;;5.40;2.50;;;;;;;8.78;59.49;100013.51;109268;1253;73558;-72
2023/04/29 05:18:55;;;;;;;4.90;2.30;;;;;;;8.88;59.01;100009.70;109062;1254;60249;-73
2023/04/29 05:21:24;;;;;;;3.70;2.40;;;;;;;8.99;58.85;100010.20;109029;1253;60801;-73
2023/04/29 05:23:51;;;;;;;3.40;2.20;;;;;;;9.09;57.83;100007.98;108962;1253;74039;-73
2023/04/29 05:26:18;;;;;;;4.40;2.00;;;;;;;9.19;56.95;100006.84;108894;1253;70950;-72
2023/04/29 05:28:45;;;;;;;3.00;2.10;;;;;;;9.29;56.01;100013.85;109065;1253;73614;-72
2023/04/29 05:31:12;;;;;;;3.50;2.40;;;;;;;9.38;55.33;100016.64;109074;1253;61131;-70
2023/04/29 05:33:39;;;;;;;2.90;2.00;;;;;;;9.47;55.26;100022.13;109264;1253;61401;-69
2023/04/29 05:36:07;;;;;;;4.00;1.80;;;;;;;9.56;54.10;100018.39;109287;1253;73871;-74
2023/04/29 05:38:34;;;;;;;3.70;1.80;;;;;;;9.66;52.87;100019.46;109231;1253;71140;-70
2023/04/29 05:41:03;;;;;;;4.40;2.10;;;;;;;9.73;51.28;100024.42;109148;1253;73655;-71
2023/04/29 05:43:45;;;;;;;4.60;1.80;;;;;;;9.79;50.06;100022.23;109139;1254;61402;-71
2023/04/29 05:46:15;;;;;;;3.90;1.60;;;;;;;9.85;49.49;100019.63;109221;1260;61454;-72
2023/04/29 05:48:42;;;;;;;4.20;2.10;;;;;;;9.94;49.02;100021.56;109267;1254;74023;-70
2023/04/29 05:51:09;;;;;;;2.40;1.50;;;;;;;10.02;48.47;100018.27;109308;1252;69121;-70
2023/04/29 05:53:37;;;;;;;2.90;1.50;;;;;;;10.12;48.10;100021.46;109149;1253;72185;-72
2023/04/29 05:56:07;;;;;;;2.20;1.40;;;;;;;10.21;47.51;100020.41;108642;1254;61187;-72
2023/04/29 05:58:34;;;;;;;4.10;1.60;;;;;;;10.30;46.93;100019.86;109044;1253;62052;-72
2023/04/29 06:01:02;;;;;;;2.40;1.70;;;;;;;10.36;46.95;100020.27;108793;1253;72007;-73
2023/04/29 06:03:30;;;;;;;3.80;1.80;;;;;;;10.42;46.10;100016.31;108642;1253;70357;-72
2023/04/29 06:06:15;;;;;;;4.40;1.40;;;;;;;10.47;45.68;100022.31;109050;1254;73444;-71
2023/04/29 06:09:00;;;;;;;2.50;1.60;;;;;;;10.54;45.67;100025.08;109200;1254;59653;-73
2023/04/29 06:11:30;;;;;;;2.40;1.50;;;;;;;10.61;45.45;100027.10;109251;1253;61032;-72
2023/04/29 06:13:59;;;;;;;4.70;1.40;;;;;;;10.67;45.17;100022.73;109023;1257;73848;-72
2023/04/29 06:16:27;;;;;;;2.20;1.40;;;;;;;10.74;45.39;100020.10;109200;1254;69902;-70
2023/04/29 06:18:54;;;;;;;1.90;1.40;;;;;;;10.81;44.59;100023.17;109027;1252;73229;-73
2023/04/29 06:21:21;;;;;;;4.20;1.50;;;;;;;10.88;44.19;100027.61;109202;1254;59323;-70
2023/04/29 06:23:47;;;;;;;2.30;1.20;;;;;;;10.93;43.87;100026.23;109200;1254;61021;-72
2023/04/29 06:26:15;;;;;;;2.10;1.20;;;;;;;10.96;43.29;100021.47;108998;1254;74001;-72
2023/04/29 06:28:43;;;;;;;3.30;1.40;;;;;;;10.98;43.00;100022.64;108882;1255;71341;-73
2023/04/29 06:31:10;;;;;;;2.90;1.50;;;;;;;11.00;43.45;100021.52;108868;1254;73463;-73
2023/04/29 06:33:38;;;;;;;3.70;1.60;;;;;;;11.07;43.58;100024.34;108919;1254;62134;-72
2023/04/29 06:36:05;;;;;;;5.10;1.80;;;;;;;11.13;42.73;100027.45;109125;1253;61359;-74
2023/04/29 06:38:44;;;;;;;3.10;1.60;;;;;;;11.17;42.67;100030.67;109296;1253;73698;-73
2023/04/29 06:41:32;;;;;;;3.90;1.40;;;;;;;11.21;42.98;100024.66;108888;1254;69343;-72
2023/04/29 06:44:26;;;;;;;2.00;1.30;;;;;;;11.29;42.53;100024.33;108984;1253;72721;-73
2023/04/29 06:47:03;;;;;;;3.10;1.30;;;;;;;11.34;42.55;100025.82;109368;1253;61312;-73
2023/04/29 06:49:51;;;;;;;3.20;1.70;;;;;;;11.41;42.11;100025.42;109358;1253;60854;-72
2023/04/29 06:52:20;;;;;;;3.90;1.80;;;;;;;11.46;41.70;100024.40;109150;1253;73267;-73
2023/04/29 06:54:47;;;;;;;3.60;1.50;;;;;;;11.49;41.45;100027.07;109045;1254;71752;-71
2023/04/29 06:57:14;;;;;;;5.90;1.50;;;;;;;11.54;41.46;100028.88;109015;1253;73757;-72
2023/04/29 06:59:46;;;;;;;2.30;1.50;;;;;;;11.60;40.85;100030.67;109141;1253;61054;-73
2023/04/29 07:02:13;;;;;;;2.30;1.50;;;;;;;11.67;40.40;100033.73;108870;1253;58996;-72
2023/04/29 07:04:40;;;;;;;1.90;1.50;;;;;;;11.69;40.64;100032.89;108731;1254;75220;-73
2023/04/29 07:07:08;;;;;;;4.10;1.40;;;;;;;11.71;40.35;100028.46;108948;1253;70761;-73
2023/04/29 07:09:35;;;;;;;2.20;1.30;;;;;;;11.70;40.27;100029.97;108354;1260;71409;-72
2023/04/29 07:12:03;;;;;;;3.40;1.30;;;;;;;11.72;40.53;100033.62;106452;1259;60971;-71
2023/04/29 07:14:30;;;;;;;1.50;1.40;;;;;;;11.74;40.30;100029.30;106173;1253;59956;-71
2023/04/29 07:16:57;;;;;;;2.80;1.30;;;;;;;11.76;39.48;100029.48;106180;1253;75288;-74
2023/04/29 07:19:25;;;;;;;2.40;1.20;;;;;;;11.76;39.73;100030.39;105854;1253;72286;-74
2023/04/29 07:21:52;;;;;;;4.40;1.50;;;;;;;11.78;39.81;100031.23;106080;1254;70720;-74
2023/04/29 07:24:18;;;;;;;3.80;1.50;;;;;;;11.84;39.83;100027.59;105706;1253;62152;-73
2023/04/29 07:26:47;;;;;;;2.70;1.30;;;;;;;11.91;39.19;100033.02;105907;1257;60228;-73
2023/04/29 07:29:15;;;;;;;2.20;1.50;;;;;;;11.96;39.64;100032.16;105847;1254;71812;-74
2023/04/29 07:31:43;;;;;;;2.30;1.40;;;;;;;11.97;39.59;100032.54;105782;1254;71058;-74
2023/04/29 07:34:10;;;;;;;4.80;1.30;;;;;;;11.94;39.53;100026.49;105852;1258;71078;-75
2023/04/29 07:36:38;;;;;;;5.10;1.80;;;;;;;11.91;39.27;100024.27;105678;1259;60991;-73
2023/04/29 07:39:05;;;;;;;2.80;1.60;;;;;;;11.94;39.53;100025.16;105760;1258;59698;-73
2023/04/29 07:41:32;;;;;;;2.10;1.20;;;;;;;11.95;39.53;100022.20;105757;1255;73801;-74
2023/04/29 07:43:59;;;;;;;2.20;1.30;;;;;;;11.98;38.75;100024.02;105644;1257;71762;-72
2023/04/29 07:46:26;;;;;;;2.30;1.40;;;;;;;12.03;38.60;100018.25;105723;1256;74764;-74
2023/04/29 07:48:53;;;;;;;2.90;1.30;;;;;;;12.06;38.74;100017.85;105597;1254;62305;-73
2023/04/29 07:51:20;;;;;;;3.80;1.50;;;;;;;12.09;38.83;100019.67;105695;1258;62628;-74
2023/04/29 07:53:47;;;;;;;2.00;1.40;;;;;;;12.09;39.19;100017.36;105992;1254;73633;-72
2023/04/29 07:56:15;;;;;;;1.80;1.20;;;;;;;12.12;39.54;100013.34;105870;1254;71725;-74
2023/04/29 07:58:42;;;;;;;3.20;1.20;;;;;;;12.17;39.64;100014.52;105830;1254;73416;-74
2023/04/29 08:01:10;;;;;;;2.30;1.60;;;;;;;12.24;40.08;100013.22;105870;1253;61727;-74
2023/04/29 08:03:38;;;;;;;2.50;1.30;;;;;;;12.27;40.02;100009.48;105871;1253;60535;-70
2023/04/29 08:06:08;;;;;;;3.30;1.30;;;;;;;12.34;40.04;100009.72;105874;1258;74967;-69
2023/04/29 08:08:35;;;;;;;2.30;1.20;;;;;;;12.41;39.93;100009.70;105468;1257;71241;-66
2023/04/29 08:11:03;;;;;;;3.90;1.40;;;;;;;12.51;39.55;100009.16;105346;1257;72720;-69
2023/04/29 08:13:30;;;;;;;5.60;1.50;;;;;;;12.62;39.57;100007.89;105762;1259;60432;-67
2023/04/29 08:15:57;;;;;;;2.40;1.40;;;;;;;12.67;39.35;100009.00;105712;1254;62279;-66
2023/04/29 08:18:24;;;;;;;2.50;1.30;;;;;;;12.72;39.27;100003.34;105884;1254;76155;-70
2023/04/29 08:20:50;;;;;;;2.20;1.40;;;;;;;12.80;38.97;100003.48;105752;1254;72451;-69
2023/04/29 08:23:17;;;;;;;2.90;1.90;;;;;;;12.89;38.84;100004.04;105780;1253;75017;-70
2023/04/29 08:25:44;;;;;;;3.10;1.50;;;;;;;13.01;38.57;100002.55;105760;1253;60458;-71
2023/04/29 08:28:11;;;;;;;3.60;1.50;;;;;;;13.12;38.33;100001.17;105770;1253;62215;-69
2023/04/29 08:30:39;;;;;;;4.00;1.60;;;;;;;13.27;38.21;100003.61;105973;1253;72430;-69
2023/04/29 08:33:07;;;;;;;2.20;1.40;;;;;;;13.38;38.17;100002.09;105914;1253;72453;-68
2023/04/29 08:35:37;;;;;;;3.80;1.40;;;;;;;13.47;38.18;100001.08;105827;1254;74625;-70
2023/04/29 08:38:05;;;;;;;2.70;1.60;;;;;;;13.58;37.85;100003.23;105602;1256;62090;-69
2023/04/29 08:40:36;;;;;;;3.10;1.70;;;;;;;13.68;37.80;100002.35;105862;1253;62342;-70
2023/04/29 08:43:03;;;;;;;2.80;1.30;;;;;;;13.83;37.95;99996.83;105737;1253;74071;-71
2023/04/29 08:45:31;;;;;;;3.30;1.30;;;;;;;14.02;37.84;100003.07;105850;1260;70905;-70
2023/04/29 08:47:58;;;;;;;2.00;1.50;;;;;;;14.18;37.50;99998.17;105924;1257;71129;-69
2023/04/29 08:50:25;;;;;;;5.80;1.90;;;;;;;14.31;37.40;100001.23;105660;1260;61232;-68
2023/04/29 08:52:52;;;;;;;2.90;1.40;;;;;;;14.51;37.30;100001.33;105706;1253;62264;-70
2023/04/29 08:55:19;;;;;;;3.30;1.30;;;;;;;14.73;36.82;100001.34;105684;1254;72180;-69
2023/04/29 08:57:46;;;;;;;4.10;1.40;;;;;;;14.96;36.38;100006.89;105796;1260;71069;-67
2023/04/29 09:00:12;;;;;;;3.40;1.50;;;;;;;15.19;36.09;100001.40;105444;1260;74640;-66
2023/04/29 09:02:48;;;;;;;3.40;1.40;;;;;;;15.42;36.10;100002.80;105738;1259;62334;-66
2023/04/29 09:05:15;;;;;;;1.50;1.30;;;;;;;15.70;35.63;99997.46;105742;1255;61095;-69
2023/04/29 09:07:42;;;;;;;3.00;1.70;;;;;;;15.95;35.18;99996.02;105618;1257;76053;-67
2023/04/29 09:10:10;;;;;;;5.30;2.10;;;;;;;16.18;34.43;99999.33;105799;1254;72471;-67
2023/04/29 09:12:37;;;;;;;1.80;1.10;;;;;;;16.46;34.49;99995.95;105823;1256;72692;-69
2023/04/29 09:15:05;;;;;;;3.00;1.70;;;;;;;16.83;34.17;100000.58;105745;1254;63704;-70
2023/04/29 09:17:39;;;;;;;6.30;1.60;;;;;;;17.32;34.13;99993.73;105798;1254;60311;-67
2023/04/29 09:20:27;;;;;;;5.90;1.80;;;;;;;17.91;33.39;99987.16;105798;1254;74857;-67
2023/04/29 09:23:02;;;;;;;2.50;1.60;;;;;;;18.53;32.34;99994.08;105730;1254;70127;-68
2023/04/29 09:25:30;;;;;;;3.80;1.70;;;;;;;19.10;31.84;99997.06;105673;1259;74611;-66
2023/04/29 09:27:57;;;;;;;3.90;1.50;;;;;;;19.65;31.24;99994.39;105867;1259;62070;-68
2023/04/29 09:30:25;;;;;;;2.90;1.90;;;;;;;20.19;30.80;99988.43;105708;1255;60519;-68
2023/04/29 09:33:19;;;;;;;2.60;1.40;;;;;;;20.68;30.52;99990.45;105846;1258;75184;-68
2023/04/29 09:35:47;;;;;;;;;;;;;;;21.30;29.78;99982.36;105801;1258;72747;-71
2023/04/29 09:38:15;;;;;;;2.40;1.60;;;;;;;21.72;29.18;99990.93;105788;1258;72842;-68
2023/04/29 09:40:42;;;;;;;3.80;1.80;;;;;;;22.09;29.07;99988.38;105738;1254;61240;-67
2023/04/29 09:43:25;;;;;;;2.60;1.80;;;;;;;22.59;28.42;99991.48;105674;1254;61398;-70
2023/04/29 09:45:52;;;;;;;4.50;1.70;;;;;;;23.02;27.88;99984.75;105706;1254;75182;-69
2023/04/29 09:48:19;;;;;;;3.10;1.70;;;;;;;23.39;27.73;99984.73;105547;1253;72445;-70
2023/04/29 09:51:00;;;;;;;1.90;1.50;;;;;;;23.79;27.42;99981.27;105794;1254;74682;-67
2023/04/29 09:53:28;;;;;;;3.80;2.00;;;;;;;24.10;26.99;99986.45;105784;1254;61357;-69
2023/04/29 09:56:01;;;;;;;3.30;2.30;;;;;;;24.27;26.63;99983.45;105905;1253;62618;-70
2023/04/29 09:58:40;;;;;;;2.60;1.90;;;;;;;24.48;26.47;99980.45;105813;1254;75830;-67
2023/04/29 10:01:07;;;;;;;4.40;2.10;;;;;;;24.82;26.32;99972.98;105802;1257;70774;-71
2023/04/29 10:03:36;;;;;;;2.40;1.90;;;;;;;25.23;25.88;99967.78;105774;1254;74588;-70
2023/04/29 10:06:05;;;;;;;2.50;1.60;;;;;;;25.60;25.50;99966.33;105769;1258;61202;-67
2023/04/29 10:08:32;;;;;;;3.70;1.70;;;;;;;25.95;25.12;99961.05;105817;1253;61384;-67
2023/04/29 10:11:01;;;;;;;2.50;1.90;;;;;;;26.21;25.03;99962.69;105795;1254;73968;-70
2023/04/29 10:13:28;;;;;;;3.70;1.90;;;;;;;26.39;25.06;99957.80;105731;1253;72528;-68
2023/04/29 10:15:59;;;;;;;2.50;1.70;;;;;;;26.49;24.64;99957.45;105662;1254;73512;-68
2023/04/29 10:18:35;;;;;;;2.20;1.90;;;;;;;26.64;24.68;99955.27;105811;1253;61921;-70
2023/04/29 10:21:05;;;;;;;3.10;1.90;;;;;;;26.97;24.38;99951.29;105672;1258;62481;-71
2023/04/29 10:23:32;;;;;;;3.20;2.00;;;;;;;27.25;24.27;99951.26;105730;1253;74596;-72
2023/04/29 10:25:59;;;;;;;6.60;2.30;;;;;;;27.41;24.03;99944.33;105670;1254;72273;-68
2023/04/29 10:28:27;;;;;;;3.10;2.00;;;;;;;27.52;24.37;99944.46;105649;1255;73368;-68
2023/04/29 10:30:53;;;;;;;3.60;1.70;;;;;;;27.88;24.11;99946.25;105531;1259;61375;-69
2023/04/29 10:33:22;;;;;;;2.30;1.80;;;;;;;28.21;23.93;99948.08;105624;1260;60776;-69
2023/04/29 10:35:49;;;;;;;2.40;2.00;;;;;;;28.48;23.35;99943.76;105736;1253;73479;-69
2023/04/29 10:38:23;;;;;;;11.70;2.30;;;;;;;28.56;23.24;99943.08;105683;1254;70653;-68
2023/04/29 10:40:50;;;;;;;2.10;1.80;;;;;;;28.60;23.05;99942.02;105870;1253;74805;-68
2023/04/29 10:43:22;;;;;;;13.40;2.50;;;;;;;28.72;22.83;99934.98;105563;1261;60524;-69
2023/04/29 10:45:49;;;;;;;5.90;2.20;;;;;;;28.96;22.72;99931.73;105720;1253;60963;-70
2023/04/29 10:48:19;;;;;;;6.80;2.70;;;;;;;29.23;22.57;99924.70;105743;1257;75953;-67
2023/04/29 10:50:46;;;;;;;2.80;2.10;;;;;;;29.39;22.54;99925.20;105583;1256;72822;-68
2023/04/29 10:53:14;;;;;;;3.60;1.80;;;;;;;29.53;22.06;99925.33;105797;1259;73749;-72
2023/04/29 10:55:42;;;;;;;3.30;2.00;;;;;;;29.55;22.32;99930.14;105833;1259;60447;-70
2023/04/29 10:58:34;;;;;;;2.60;1.90;;;;;;;29.67;22.04;99926.23;105645;1253;60463;-70
2023/04/29 11:01:02;;;;;;;2.00;1.80;;;;;;;29.80;21.96;99924.63;105872;1253;76172;-69
2023/04/29 11:03:57;;;;;;;2.20;1.80;;;;;;;29.92;21.64;99916.27;105865;1252;71637;-70
2023/04/29 11:06:38;;;;;;;2.40;1.60;;;;;;;29.84;21.97;99912.31;105863;1253;73931;-69
2023/04/29 11:09:08;;;;;;;2.00;1.90;;;;;;;30.01;21.94;99920.38;105765;1254;62046;-70
2023/04/29 11:11:45;;;;;;;2.00;1.80;;;;;;;30.33;21.41;99910.65;105856;1255;62290;-69
2023/04/29 11:14:12;;;;;;;2.60;1.90;;;;;;;30.53;21.25;99902.69;105891;1253;72159;-70
2023/04/29 11:16:54;;;;;;;2.80;1.80;;;;;;;30.62;20.88;99894.89;105763;1256;70908;-70
2023/04/29 11:19:25;;;;;;;4.60;2.40;;;;;;;30.57;20.98;99899.80;105800;1257;74946;-67
2023/04/29 11:22:08;;;;;;;1.90;1.80;;;;;;;30.56;21.16;99896.52;105837;1254;60534;-67
2023/04/29 11:24:35;;;;;;;2.00;1.80;;;;;;;30.64;21.29;99901.34;105802;1254;60428;-69
2023/04/29 11:27:05;;;;;;;2.10;1.90;;;;;;;30.77;21.06;99898.87;105869;1259;76205;-71
2023/04/29 11:29:32;;;;;;;2.80;2.00;;;;;;;31.02;21.02;99895.45;106056;1254;72384;-70
2023/04/29 11:32:00;;;;;;;4.50;2.10;;;;;;;31.25;21.12;99892.86;105880;1254;74920;-69
2023/04/29 11:34:27;;;;;;;4.20;2.10;;;;;;;31.45;21.17;99889.27;106018;1254;60958;-69
2023/04/29 11:36:55;;;;;;;2.30;1.80;;;;;;;31.88;20.70;99894.68;105799;1257;60545;-68
2023/04/29 11:39:22;;;;;;;2.00;1.70;;;;;;;32.04;20.37;99891.46;105784;1254;75271;-68
2023/04/29 11:41:49;;;;;;;2.60;2.00;;;;;;;32.25;20.13;99889.52;105759;1252;71620;-65